Aurora, Nebraska
Current Conditions -  °F | °C
As of 6:35 PM on Thursday 27 Nov 2014 (Local Time) from KAUH Reporting Station
Clear Clear  
Wind Chill: 22°   Ceiling: Unl
Heat Index: 30°   Visibility: 10mi
Dew Point: 18°   Wind: 9mph
Humidity: 60%   Direction: 150°SSE
Pressure: 30.13"   Gusts: NA
Location:  40.87°N, 98°W
Report Text: KAUH 280035Z AUTO 15008KT 10SM CLR M01/M08 A3013 RMK AO2 T10091078
Loading
Personal Weather Stations






























Interactive Weather Map New forecast layout! Learn more

10-Day Weather Forecast

Advertisements
Track Severe Weather on mobile